Карточка аэропорта ULMM

Внимание!
Информация на этой странице в стадии наполнения.
Если вы не увидели какой-то информации, или заметили неточность - пожалуйста сообщите нам!
Спасибо!
Команда RU-STAFF
Название аэропортаМурманск
Название аэропорта (англ.)Murmansk
Превышение262 ft. (79.9 m.)
Координаты68°46.902', 32°45.066'
Высота перехода900m
Эшелон переходаQFE>=753mm:FL050; QFE<753=>727:FL060; QFE<727:FL070
Коды ответчика3101-3117
Зона ОрВДСанкт-Петербург РПИ (ULLL)
Данные METARULMM 271200Z 27001MPS 9999 SCT040 M09/M09 Q0996 R13/390040 NOSIG RMK QFE740
Проноз погоды (TAF)ULMM 271050Z 2712/2812 20003MPS 9999 BKN016 TEMPO 2712/2812 25003G08MPS -SHSN BKN011 BKN016CB
NOTAMshow/hide NOTAM
AWOS   TABLE

Информация о ВПП

ВПП Длина ВПП (м.) Покрытие Курс ВПП Частота ILS
132500Асфальтобетон131110.3
312500Асфальтобетон311108.5

Диспетчерские позиции




Спутниковое изображение